Terminal Aerodrome Forecast
Issued by NWS Grand Forks, ND

Home | Current Version | Previous Version | Text Only | Print | Product List | Glossary Off
Versions: 1 2 3 4 5 6 7 8 9 10 11 12 13 14 15 16 17

000
FTUS43 KFGF 090149 AAA
TAFFAR
TAF AMD
KFAR 090149Z 0902/0924 30012KT P6SM OVC035
      TEMPO 0902/0904 2SM -SN OVC016
     FM090400 32007KT P6SM OVC020
     FM091400 31004KT P6SM BKN035
     FM091600 30005KT P6SM BKN050=

USA.gov is the U.S. government's official web portal to all federal, state and local government web resources and services.